Airfield :
LOGIN :

Register | Disclaimer

   EN    FR    IT 

 










Legend :    VFR   Marginal VFR   IFR   Intensive IFR   Very Intensive IFR
Visi :
Ceiling :
>= 8 km
>= 3000ft
5 to 8 km
1000 to 3000 ft
1500m to 5 km
500 to 1000 ft
800 to 1500m
200 to 500 ft
< 800m
< 200 ft
Symbols :   Thunderstorms  Fog  Heavy snow  Heavy precipitations  Wind > 20 kt
SIGMETs :     Misc.  Thunderstorms  Icing  Turbulence  Mountain Waves  Volcanic Ashes







- Airport Elevation : 83 ft
- IATA code : LHR
- Download approach charts


EGLL - London Heathrow

CURRENT METAR :
  • 190350Z AUTO 25006KT 9999 NCD 04/03 Q1017 NOSIG

EXPIRED METARs :
  • 190320Z AUTO 23006KT 9999 NCD 04/03 Q1017 TEMPO BKN012
  • 190250Z AUTO 24005KT 9999 NCD 04/03 Q1017 TEMPO BKN012
  • 190220Z AUTO 23005KT 9999 NCD 05/03 Q1017 NOSIG
  • 190150Z AUTO 24007KT 9999 NCD 05/03 Q1017 NOSIG
  • 190120Z AUTO 24005KT 9999 NCD 05/03 Q1017

TAF TAF EGLL
Valid from the 19 at 00:00 until the 20 at 06:00 UTC


182302Z 1900/2006 22006KT 9999 FEW015
TEMPO 1900/1910 6000 BKN006
PROB30
TEMPO 1900/1909 2500 BR BKN003
PROB30
TEMPO 1915/1921 BKN012
No reported NOTAMs for that airfield.



MET'MAP, your aeronautical weather chart ! - Copyright ORBIFLY December 2007 - Disclaimer

ORBIFLY MET'MAP TEAM :

Programming & Development : Alexandra Zaïnal
Concept & Development : Baudouin d'Aumeries
Co-Development & Prog : Marc-Olivier Méhu
Technical & hardware support : Manuel Goepfert

Contact : metmap@orbifly.com




SOURCES & CREDITS :

   NOAA